Time;durP1;ratioP1;P1;durP2;ratioP2;P2;SDS_P1;SDS_P2;PMS_P1;PMS_P2;Temp;Humidity;BMP_temperature;BMP_pressure;BME280_temperature;BME280_humidity;BME280_pressure;Samples;Min_cycle;Max_cycle;Signal;HPM_P1;HPM_P2
2021/11/27 00:00:57;;;;;;;35.43;12.63;;;5.30;99.90;;;;;;4936070;29;20714;-83
2021/11/27 00:03:24;;;;;;;35.77;12.37;;;5.40;99.90;;;;;;4936502;29;20184;-83
2021/11/27 00:05:51;;;;;;;30.83;11.10;;;5.30;99.90;;;;;;4940428;28;20291;-83
2021/11/27 00:08:18;;;;;;;23.70;10.50;;;5.30;99.90;;;;;;4927286;29;20618;-83
2021/11/27 00:10:47;;;;;;;32.27;10.60;;;5.30;99.90;;;;;;4936046;28;20195;-81
2021/11/27 00:13:14;;;;;;;38.27;19.33;;;5.30;99.90;;;;;;4935809;29;20180;-83
2021/11/27 00:15:40;;;;;;;24.13;10.20;;;5.40;99.90;;;;;;4918967;29;20275;-84
2021/11/27 00:18:07;;;;;;;21.87;11.17;;;5.40;99.90;;;;;;4935517;29;20188;-84
2021/11/27 00:20:47;;;;;;;20.20;11.27;;;5.40;99.90;;;;;;4935375;29;20223;-81
2021/11/27 00:23:14;;;;;;;18.53;10.17;;;5.40;99.90;;;;;;4933711;29;20192;-83
2021/11/27 00:25:41;;;;;;;34.20;22.47;;;5.50;99.90;;;;;;4935114;29;20338;-83
2021/11/27 00:28:07;;;;;;;15.73;8.10;;;5.40;99.90;;;;;;4918029;29;20200;-83
2021/11/27 00:30:35;;;;;;;11.00;8.83;;;5.40;99.90;;;;;;4918620;29;20335;-83
2021/11/27 00:33:01;;;;;;;11.57;6.10;;;5.40;99.90;;;;;;4935370;29;20188;-83
2021/11/27 00:35:27;;;;;;;17.50;10.23;;;5.40;99.90;;;;;;4935220;29;20199;-83
2021/11/27 00:37:55;;;;;;;14.90;8.07;;;5.40;99.90;;;;;;4935210;29;20283;-89
2021/11/27 00:40:22;;;;;;;20.70;15.27;;;5.40;99.90;;;;;;4934818;29;20310;-89
2021/11/27 00:42:47;;;;;;;7.83;5.57;;;5.40;99.90;;;;;;4917890;29;20188;-89
2021/11/27 00:45:15;;;;;;;20.93;10.57;;;5.40;99.90;;;;;;4930611;29;20195;-89
2021/11/27 00:47:45;;;;;;;26.90;19.90;;;5.40;99.90;;;;;;4913234;29;20640;-89
2021/11/27 00:50:12;;;;;;;9.73;5.20;;;5.50;99.90;;;;;;4925458;29;20326;-87
2021/11/27 00:52:38;;;;;;;13.00;8.63;;;5.50;99.90;;;;;;4915957;29;20401;-90
2021/11/27 00:55:06;;;;;;;12.77;8.10;;;5.60;99.90;;;;;;4917061;29;20291;-87
2021/11/27 00:57:31;;;;;;;13.03;8.57;;;5.50;99.90;;;;;;4916620;29;20194;-87
2021/11/27 00:59:57;;;;;;;14.30;10.80;;;5.50;99.90;;;;;;4938112;29;20589;-90
2021/11/27 01:02:22;;;;;;;24.63;18.50;;;5.50;99.90;;;;;;4938711;29;20639;-89
2021/11/27 01:04:49;;;;;;;7.80;5.67;;;5.40;99.90;;;;;;4938837;29;20196;-88
2021/11/27 01:07:15;;;;;;;10.60;7.40;;;5.50;99.90;;;;;;4922306;29;20243;-90
2021/11/27 01:09:41;;;;;;;8.03;5.87;;;5.60;99.90;;;;;;4922815;29;20187;-90
2021/11/27 01:12:07;;;;;;;14.57;12.07;;;5.50;99.90;;;;;;4922273;29;20191;-86
2021/11/27 01:14:35;;;;;;;16.87;9.10;;;5.50;99.90;;;;;;4941158;29;20668;-89
2021/11/27 01:17:05;;;;;;;9.67;6.40;;;5.50;99.90;;;;;;4918210;29;20244;-89
2021/11/27 01:19:33;;;;;;;11.63;7.67;;;5.50;99.90;;;;;;4942481;29;20203;-89
2021/11/27 01:22:16;;;;;;;10.10;7.63;;;5.50;99.90;;;;;;4930920;29;20633;-90
2021/11/27 01:24:43;;;;;;;9.00;6.13;;;5.40;99.90;;;;;;4938273;29;20180;-89
2021/11/27 01:27:10;;;;;;;10.57;6.33;;;5.30;99.90;;;;;;4949284;28;20214;-90
2021/11/27 01:29:39;;;;;;;14.43;9.63;;;5.20;99.90;;;;;;4921809;29;20184;-89
2021/11/27 01:32:07;;;;;;;9.73;6.40;;;5.20;99.90;;;;;;4922340;29;20199;-89
2021/11/27 01:34:33;;;;;;;10.20;5.70;;;5.20;99.90;;;;;;4922113;29;20219;-89
2021/11/27 01:36:59;;;;;;;10.73;6.47;;;5.30;99.90;;;;;;4925901;28;20171;-89
2021/11/27 01:39:25;;;;;;;9.43;5.40;;;5.30;99.90;;;;;;4931391;29;20266;-90
2021/11/27 01:41:51;;;;;;;12.40;6.53;;;5.30;99.90;;;;;;4922196;29;20274;-89
2021/11/27 01:44:16;;;;;;;13.90;8.20;;;5.30;99.90;;;;;;4922052;29;20257;-90
2021/11/27 01:46:42;;;;;;;9.40;5.60;;;5.20;99.90;;;;;;4908846;29;20680;-89
2021/11/27 01:49:10;;;;;;;8.97;5.93;;;5.00;99.90;;;;;;4921945;29;20184;-89
2021/11/27 01:51:36;;;;;;;8.87;6.00;;;5.00;99.90;;;;;;4922411;29;20186;-89
2021/11/27 01:54:07;;;;;;;13.87;8.43;;;5.00;99.90;;;;;;4921641;29;20200;-89
2021/11/27 01:56:38;;;;;;;16.60;12.07;;;5.00;99.90;;;;;;4921937;29;20269;-89
2021/11/27 01:59:04;;;;;;;19.53;12.53;;;5.00;99.90;;;;;;4925115;29;20183;-89
2021/11/27 02:01:33;;;;;;;11.87;6.70;;;4.90;99.90;;;;;;4940670;29;20179;-89
2021/11/27 02:03:59;;;;;;;11.20;6.93;;;4.80;99.90;;;;;;4925358;29;20189;-89
2021/11/27 02:06:26;;;;;;;9.77;6.47;;;4.80;99.90;;;;;;4922045;29;20176;-89
2021/11/27 02:08:55;;;;;;;13.97;7.50;;;4.90;99.90;;;;;;4921227;29;20680;-87
2021/11/27 02:11:28;;;;;;;20.23;11.73;;;4.80;99.90;;;;;;4915523;29;20234;-89
2021/11/27 02:13:55;;;;;;;18.07;11.30;;;4.70;99.90;;;;;;4915507;29;20188;-89
2021/11/27 02:16:20;;;;;;;10.33;7.47;;;4.70;99.90;;;;;;4921404;29;20221;-88
2021/11/27 02:18:46;;;;;;;11.77;7.03;;;4.60;99.90;;;;;;4921548;29;20551;-90
2021/11/27 02:21:16;;;;;;;14.67;8.30;;;4.60;99.90;;;;;;4924913;29;20265;-89
2021/11/27 02:23:42;;;;;;;15.40;8.80;;;4.70;99.90;;;;;;4930537;29;20184;-90
2021/11/27 02:26:10;;;;;;;17.03;8.00;;;4.70;99.90;;;;;;4923356;28;20184;-89
2021/11/27 02:28:38;;;;;;;16.37;7.97;;;4.70;99.90;;;;;;4932161;29;20182;-89
2021/11/27 02:31:04;;;;;;;18.53;8.20;;;4.70;99.90;;;;;;4921130;29;20195;-90
2021/11/27 02:33:30;;;;;;;16.23;8.93;;;4.60;99.90;;;;;;4921157;29;20180;-90
2021/11/27 02:35:56;;;;;;;22.40;9.50;;;4.60;99.90;;;;;;4921217;29;20180;-89
2021/11/27 02:38:22;;;;;;;23.33;9.00;;;4.50;99.90;;;;;;4920507;29;20613;-89
2021/11/27 02:40:49;;;;;;;21.83;8.73;;;4.60;99.90;;;;;;4921276;29;20568;-87
2021/11/27 02:43:15;;;;;;;22.87;9.07;;;4.50;99.90;;;;;;4920942;29;20184;-88
2021/11/27 02:45:41;;;;;;;20.93;10.27;;;4.50;99.90;;;;;;4921252;29;20195;-89
2021/11/27 02:48:06;;;;;;;21.93;9.17;;;4.50;99.90;;;;;;4936512;29;20641;-88
2021/11/27 02:50:32;;;;;;;19.87;8.97;;;4.60;99.90;;;;;;4920960;29;20187;-88
2021/11/27 02:52:58;;;;;;;21.20;8.47;;;4.60;99.90;;;;;;4920709;29;20188;-89
2021/11/27 02:55:24;;;;;;;21.07;8.87;;;4.60;99.90;;;;;;4920690;29;20180;-89
2021/11/27 02:57:50;;;;;;;18.33;8.97;;;4.60;99.90;;;;;;4930723;29;20250;-89
2021/11/27 03:00:19;;;;;;;19.43;8.47;;;4.50;99.90;;;;;;4924004;29;20207;-89
2021/11/27 03:02:48;;;;;;;22.27;8.77;;;4.50;99.90;;;;;;4920729;29;20188;-89
2021/11/27 03:05:14;;;;;;;23.07;9.10;;;4.50;99.90;;;;;;4933707;29;20191;-88
2021/11/27 03:07:40;;;;;;;21.60;8.77;;;4.60;99.90;;;;;;4920545;29;20285;-89
2021/11/27 03:10:09;;;;;;;23.33;8.60;;;4.60;99.90;;;;;;4920516;29;20191;-89
2021/11/27 03:12:35;;;;;;;24.23;10.30;;;4.60;99.90;;;;;;4919919;29;20219;-89
2021/11/27 03:15:01;;;;;;;20.80;9.20;;;4.50;99.90;;;;;;4919968;29;20201;-88
2021/11/27 03:17:26;;;;;;;32.50;9.20;;;4.50;99.90;;;;;;4920097;29;20275;-89
2021/11/27 03:19:52;;;;;;;20.57;6.97;;;4.40;99.90;;;;;;4920395;29;20243;-88
2021/11/27 03:22:19;;;;;;;23.83;8.77;;;4.40;99.90;;;;;;4920207;29;20188;-88
2021/11/27 03:24:46;;;;;;;23.47;8.33;;;4.30;99.90;;;;;;4927841;29;20186;-89
2021/11/27 03:27:14;;;;;;;24.10;8.20;;;4.20;99.90;;;;;;4942576;29;20211;-89
2021/11/27 03:29:41;;;;;;;19.47;7.87;;;4.20;99.90;;;;;;4919901;29;20180;-89
2021/11/27 03:32:14;;;;;;;22.80;7.93;;;4.20;99.90;;;;;;4920547;29;20187;-89
2021/11/27 03:34:40;;;;;;;25.27;7.60;;;4.30;99.90;;;;;;4937186;29;20194;-89
2021/11/27 03:37:06;;;;;;;23.37;7.47;;;4.20;99.90;;;;;;4919674;29;20234;-89
2021/11/27 03:39:32;;;;;;;16.60;7.00;;;4.10;99.90;;;;;;4920119;29;20250;-89
2021/11/27 03:42:04;;;;;;;16.10;7.10;;;3.90;99.90;;;;;;4925371;29;20529;-89
2021/11/27 03:44:30;;;;;;;22.60;8.07;;;4.10;99.90;;;;;;4927297;29;20563;-88
2021/11/27 03:46:59;;;;;;;25.67;7.03;;;4.20;99.90;;;;;;4936674;29;20183;-88
2021/11/27 03:49:29;;;;;;;23.43;6.77;;;4.20;99.90;;;;;;4919806;29;20243;-89
2021/11/27 03:51:55;;;;;;;19.67;6.30;;;4.10;99.90;;;;;;4936390;29;20194;-88
2021/11/27 03:54:21;;;;;;;24.87;7.37;;;4.00;99.90;;;;;;4928820;29;20187;-89
2021/11/27 03:56:48;;;;;;;26.67;7.63;;;4.00;99.90;;;;;;4923797;29;20223;-89
2021/11/27 03:59:14;;;;;;;20.57;7.30;;;4.10;99.90;;;;;;4919794;29;20263;-89
2021/11/27 04:01:40;;;;;;;15.83;6.50;;;4.10;99.90;;;;;;4936284;29;20196;-89
2021/11/27 04:04:06;;;;;;;24.63;6.57;;;4.20;99.90;;;;;;4936531;29;20620;-89
2021/11/27 04:06:34;;;;;;;21.90;7.03;;;4.20;99.90;;;;;;4919048;29;20198;-88
2021/11/27 04:09:00;;;;;;;24.67;6.63;;;4.10;99.90;;;;;;4923546;29;20269;-88
2021/11/27 04:11:27;;;;;;;21.83;7.37;;;4.20;99.90;;;;;;4928898;29;20199;-88
2021/11/27 04:13:53;;;;;;;16.83;6.67;;;4.10;99.90;;;;;;4921291;29;20623;-88
2021/11/27 04:16:19;;;;;;;28.77;6.50;;;4.00;99.90;;;;;;4930275;29;20185;-88
2021/11/27 04:18:45;;;;;;;16.97;6.57;;;3.90;99.90;;;;;;4932635;29;20707;-86
2021/11/27 04:21:12;;;;;;;19.97;6.17;;;4.00;99.90;;;;;;4919562;29;20312;-88
2021/11/27 04:23:37;;;;;;;18.13;6.10;;;3.90;99.90;;;;;;4948333;29;20234;-89
2021/11/27 04:26:04;;;;;;;23.10;6.73;;;3.90;99.90;;;;;;4920192;29;20592;-88
2021/11/27 04:28:29;;;;;;;28.60;8.10;;;4.00;99.90;;;;;;4919398;29;20191;-89
2021/11/27 04:30:56;;;;;;;25.67;6.90;;;4.00;99.90;;;;;;4921683;29;20183;-89
2021/11/27 04:33:21;;;;;;;19.17;6.93;;;4.20;99.90;;;;;;4938101;29;20659;-88
2021/11/27 04:35:48;;;;;;;22.83;7.67;;;4.10;99.90;;;;;;4924371;29;20187;-89
2021/11/27 04:38:14;;;;;;;21.53;7.93;;;4.10;99.90;;;;;;4919062;29;20207;-89
2021/11/27 04:40:40;;;;;;;19.83;6.70;;;4.00;99.90;;;;;;4919548;29;20226;-89
2021/11/27 04:43:05;;;;;;;25.87;7.43;;;3.90;99.90;;;;;;4919129;29;20274;-88
2021/11/27 04:45:34;;;;;;;20.10;7.23;;;3.80;99.90;;;;;;4919357;29;20184;-88
2021/11/27 04:48:01;;;;;;;30.27;8.70;;;3.90;99.90;;;;;;4918993;29;20199;-89
2021/11/27 04:50:29;;;;;;;28.33;7.60;;;3.80;99.90;;;;;;4918942;29;20199;-89
2021/11/27 04:52:55;;;;;;;24.10;8.00;;;3.50;99.90;;;;;;4919105;29;20274;-89
2021/11/27 04:55:20;;;;;;;23.73;7.53;;;3.70;99.90;;;;;;4919235;29;20222;-88
2021/11/27 04:57:46;;;;;;;15.00;6.90;;;3.80;99.90;;;;;;4928273;29;20671;-88
2021/11/27 05:00:21;;;;;;;19.47;6.83;;;3.60;99.90;;;;;;4936516;29;20706;-89
2021/11/27 05:02:47;;;;;;;17.17;5.63;;;3.70;99.90;;;;;;4918664;29;20185;-89
2021/11/27 05:05:13;;;;;;;13.57;6.23;;;3.70;99.90;;;;;;4932444;29;20274;-89
2021/11/27 05:07:38;;;;;;;12.97;5.57;;;3.50;99.90;;;;;;4918706;29;20195;-90
2021/11/27 05:10:05;;;;;;;18.77;6.40;;;3.40;99.90;;;;;;4930915;29;20242;-90
2021/11/27 05:12:31;;;;;;;17.77;5.90;;;3.50;99.90;;;;;;4937466;29;20187;-90
2021/11/27 05:14:56;;;;;;;22.73;6.53;;;3.50;99.90;;;;;;4927605;29;20639;-89
2021/11/27 05:17:22;;;;;;;18.47;6.20;;;3.50;99.90;;;;;;4918366;29;20180;-88
2021/11/27 05:19:48;;;;;;;18.90;5.97;;;3.30;99.90;;;;;;4919104;29;20216;-90
2021/11/27 05:22:13;;;;;;;18.07;7.10;;;3.30;99.90;;;;;;4918940;29;20210;-89
2021/11/27 05:24:44;;;;;;;16.83;6.50;;;3.20;99.90;;;;;;4918870;29;20327;-89
2021/11/27 05:27:11;;;;;;;16.00;5.20;;;3.20;99.90;;;;;;4918937;29;20210;-90
2021/11/27 05:29:38;;;;;;;19.93;5.63;;;3.20;99.90;;;;;;4932140;29;20180;-89
2021/11/27 05:32:05;;;;;;;21.03;5.80;;;3.30;99.90;;;;;;4918637;29;20191;-89
2021/11/27 05:34:34;;;;;;;18.00;5.80;;;3.30;99.90;;;;;;4918724;29;20188;-89
2021/11/27 05:37:06;;;;;;;16.10;5.50;;;3.20;99.90;;;;;;4924094;29;20645;-90
2021/11/27 05:39:32;;;;;;;15.33;5.87;;;3.40;99.90;;;;;;4922219;29;20566;-89
2021/11/27 05:41:58;;;;;;;22.83;7.40;;;3.50;99.90;;;;;;4921849;29;20267;-89
2021/11/27 05:44:24;;;;;;;15.57;5.87;;;3.60;99.90;;;;;;4921907;29;20186;-87
2021/11/27 05:46:50;;;;;;;13.67;5.37;;;3.80;99.90;;;;;;4921889;29;20207;-90
2021/11/27 05:49:15;;;;;;;12.20;5.33;;;3.70;99.90;;;;;;4921950;29;20191;-90
2021/11/27 05:51:42;;;;;;;15.13;5.53;;;3.70;99.90;;;;;;4923310;29;20700;-90
2021/11/27 05:54:08;;;;;;;25.90;5.67;;;3.60;99.90;;;;;;4933714;29;20268;-89
2021/11/27 05:56:33;;;;;;;16.43;5.10;;;3.60;99.90;;;;;;4922104;29;20275;-89
2021/11/27 05:58:59;;;;;;;18.33;5.70;;;3.50;99.90;;;;;;4921489;29;20184;-90
2021/11/27 06:01:25;;;;;;;14.43;5.67;;;3.60;99.90;;;;;;4921826;29;20188;-88
2021/11/27 06:03:51;;;;;;;18.03;5.33;;;3.60;99.90;;;;;;4925185;29;20570;-88
2021/11/27 06:06:17;;;;;;;31.83;16.47;;;3.80;99.90;;;;;;4940914;29;20191;-90
2021/11/27 06:08:42;;;;;;;10.40;5.37;;;3.80;99.90;;;;;;4926940;29;20220;-88
2021/11/27 06:11:08;;;;;;;22.60;6.07;;;3.70;99.90;;;;;;4933342;29;20187;-89
2021/11/27 06:13:34;;;;;;;21.53;6.87;;;3.70;99.90;;;;;;4921394;29;20192;-90
2021/11/27 06:16:00;;;;;;;15.90;6.50;;;3.70;99.90;;;;;;4921287;29;20556;-90
2021/11/27 06:18:26;;;;;;;20.00;6.20;;;3.70;99.90;;;;;;4921359;29;20648;-86
2021/11/27 06:20:51;;;;;;;12.90;5.53;;;3.60;99.90;;;;;;4921529;29;20229;-90
2021/11/27 06:23:17;;;;;;;21.00;9.40;;;3.70;99.90;;;;;;4947575;29;20183;-90
2021/11/27 06:25:43;;;;;;;23.17;6.00;;;3.70;99.90;;;;;;4925634;29;20187;-89
2021/11/27 06:28:09;;;;;;;18.40;4.93;;;3.50;99.90;;;;;;4928519;29;20668;-90
2021/11/27 06:30:36;;;;;;;19.77;5.50;;;3.50;99.90;;;;;;4927107;29;20210;-90
2021/11/27 06:33:02;;;;;;;22.07;6.53;;;3.30;99.90;;;;;;4926870;29;20183;-89
2021/11/27 06:35:27;;;;;;;14.27;4.60;;;3.10;99.90;;;;;;4945973;29;20275;-89
2021/11/27 06:37:53;;;;;;;16.47;5.53;;;3.10;99.90;;;;;;4921148;29;20247;-90
2021/11/27 06:40:19;;;;;;;14.23;7.00;;;3.10;99.90;;;;;;4921007;29;20322;-90
2021/11/27 06:42:44;;;;;;;15.93;5.53;;;3.20;99.90;;;;;;4920892;29;20207;-89
2021/11/27 06:45:10;;;;;;;19.13;5.27;;;3.30;99.90;;;;;;4933833;29;20255;-90
2021/11/27 06:47:36;;;;;;;15.67;5.47;;;3.10;99.90;;;;;;4920141;29;20251;-90
2021/11/27 06:50:03;;;;;;;17.33;4.97;;;3.00;99.90;;;;;;4920980;29;20188;-89
2021/11/27 06:52:29;;;;;;;11.13;5.17;;;3.00;99.90;;;;;;4928754;29;20180;-88
2021/11/27 06:54:55;;;;;;;16.17;5.43;;;3.10;99.90;;;;;;4926307;29;20230;-87
2021/11/27 06:57:20;;;;;;;15.30;5.30;;;3.10;99.90;;;;;;4921099;29;20184;-90
2021/11/27 06:59:46;;;;;;;20.83;6.53;;;3.10;99.90;;;;;;4920509;29;20587;-90
2021/11/27 07:02:11;;;;;;;15.13;4.97;;;3.20;99.90;;;;;;4920899;29;20197;-90
2021/11/27 07:04:37;;;;;;;19.50;5.47;;;3.10;99.90;;;;;;4930112;29;20184;-90
2021/11/27 07:07:03;;;;;;;18.40;5.83;;;3.10;99.90;;;;;;4924186;29;20632;-89
2021/11/27 07:09:28;;;;;;;11.50;5.53;;;3.20;99.90;;;;;;4920472;29;20194;-90
2021/11/27 07:11:54;;;;;;;15.67;6.47;;;3.30;99.90;;;;;;4936543;29;20196;-89
2021/11/27 07:14:19;;;;;;;15.90;5.67;;;3.50;99.90;;;;;;4920268;29;20191;-89
2021/11/27 07:16:45;;;;;;;19.60;6.60;;;3.40;99.90;;;;;;4920681;29;20192;-89
2021/11/27 07:19:11;;;;;;;17.67;6.20;;;3.40;99.90;;;;;;4920263;29;20191;-89
2021/11/27 07:21:36;;;;;;;14.50;6.47;;;3.50;99.90;;;;;;4920993;29;20206;-90
2021/11/27 07:24:02;;;;;;;20.13;6.97;;;3.50;99.90;;;;;;4921039;29;20190;-89
2021/11/27 07:26:28;;;;;;;19.43;6.77;;;3.40;99.90;;;;;;4920863;29;20222;-89
2021/11/27 07:28:57;;;;;;;29.03;8.27;;;3.40;99.90;;;;;;4919923;29;20191;-90
2021/11/27 07:31:25;;;;;;;15.87;6.17;;;3.30;99.90;;;;;;4920862;29;20184;-90
2021/11/27 07:33:51;;;;;;;15.90;7.47;;;3.30;99.90;;;;;;4937161;29;20342;-91
2021/11/27 07:36:16;;;;;;;15.43;6.70;;;3.30;99.90;;;;;;4923757;29;20698;-89
2021/11/27 07:38:42;;;;;;;15.67;6.50;;;3.30;99.90;;;;;;4926245;29;20681;-89
2021/11/27 07:41:08;;;;;;;16.47;6.80;;;3.40;99.90;;;;;;4927305;29;20238;-88
2021/11/27 07:43:34;;;;;;;16.77;6.40;;;3.40;99.90;;;;;;4924287;29;20175;-88
2021/11/27 07:46:01;;;;;;;15.40;6.43;;;3.40;99.90;;;;;;4929424;29;20574;-90
2021/11/27 07:48:33;;;;;;;15.27;6.53;;;3.40;99.90;;;;;;4920338;29;20192;-89
2021/11/27 07:51:01;;;;;;;17.13;7.90;;;3.40;99.90;;;;;;4921293;29;20231;-91
2021/11/27 07:53:27;;;;;;;18.03;6.70;;;3.40;99.90;;;;;;4920570;29;20184;-90
2021/11/27 07:55:52;;;;;;;17.97;7.13;;;3.50;99.90;;;;;;4919650;29;20247;-89
2021/11/27 07:58:20;;;;;;;15.17;6.80;;;3.50;99.90;;;;;;4932963;29;20715;-90
2021/11/27 08:00:46;;;;;;;15.83;6.67;;;3.60;99.90;;;;;;4923252;29;20248;-89
2021/11/27 08:03:11;;;;;;;19.50;7.50;;;3.70;99.90;;;;;;4919648;29;20192;-88
2021/11/27 08:05:37;;;;;;;15.97;7.60;;;3.70;99.90;;;;;;4939997;29;20184;-89
2021/11/27 08:08:03;;;;;;;18.03;7.67;;;3.70;99.90;;;;;;4929092;29;20191;-89
2021/11/27 08:10:29;;;;;;;19.33;6.80;;;3.80;99.90;;;;;;4919355;29;20187;-88
2021/11/27 08:12:55;;;;;;;18.00;6.90;;;3.80;99.90;;;;;;4927220;29;20203;-89
2021/11/27 08:15:21;;;;;;;18.37;7.43;;;3.70;99.90;;;;;;4922837;29;20230;-87
2021/11/27 08:17:46;;;;;;;19.03;6.80;;;3.80;99.90;;;;;;4934948;29;20184;-88
2021/11/27 08:20:12;;;;;;;16.37;6.97;;;3.80;99.90;;;;;;4934908;29;20211;-89
2021/11/27 08:22:39;;;;;;;19.90;8.00;;;4.10;99.90;;;;;;4930971;29;20211;-89
2021/11/27 08:25:05;;;;;;;17.33;7.00;;;4.10;99.90;;;;;;4935091;29;20192;-90
2021/11/27 08:27:33;;;;;;;15.17;8.03;;;4.10;99.90;;;;;;4935953;29;20203;-89
2021/11/27 08:30:02;;;;;;;17.63;6.93;;;4.20;99.90;;;;;;4934921;29;20192;-89
2021/11/27 08:32:27;;;;;;;23.43;7.30;;;4.20;99.90;;;;;;4934598;29;20192;-90
2021/11/27 08:34:54;;;;;;;18.20;7.67;;;4.30;99.90;;;;;;4934335;29;20180;-88
2021/11/27 08:37:20;;;;;;;17.27;8.60;;;4.40;99.90;;;;;;4919275;29;20291;-89
2021/11/27 08:39:46;;;;;;;24.50;8.40;;;4.50;99.90;;;;;;4919185;29;20294;-88
2021/11/27 08:42:12;;;;;;;22.13;8.53;;;4.60;99.90;;;;;;4926648;29;20191;-88
2021/11/27 08:44:40;;;;;;;20.93;8.60;;;4.50;99.90;;;;;;4925732;29;20180;-88
2021/11/27 08:47:06;;;;;;;19.60;8.70;;;4.50;99.90;;;;;;4930976;29;20280;-88
2021/11/27 08:49:35;;;;;;;22.40;8.50;;;4.50;99.90;;;;;;4918868;29;20556;-88
2021/11/27 08:52:04;;;;;;;22.37;8.37;;;4.50;99.90;;;;;;4921047;29;20567;-88
2021/11/27 08:54:31;;;;;;;21.70;9.33;;;4.40;99.90;;;;;;4918251;29;20267;-89
2021/11/27 08:57:03;;;;;;;21.40;8.20;;;4.40;99.90;;;;;;4919240;29;20195;-90
2021/11/27 08:59:32;;;;;;;22.30;9.23;;;4.40;99.90;;;;;;4920493;29;20204;-89
2021/11/27 09:02:00;;;;;;;17.17;8.27;;;4.60;99.90;;;;;;4920087;29;20191;-89
2021/11/27 09:04:29;;;;;;;23.13;9.53;;;4.60;99.90;;;;;;4920358;29;20239;-89
2021/11/27 09:06:55;;;;;;;17.67;8.13;;;4.70;99.90;;;;;;4915363;29;20206;-88
2021/11/27 09:09:23;;;;;;;22.80;9.37;;;4.60;99.90;;;;;;4919715;29;20227;-89
2021/11/27 09:11:53;;;;;;;23.00;9.23;;;4.50;99.90;;;;;;4935977;29;20184;-88
2021/11/27 09:14:20;;;;;;;23.50;9.97;;;4.50;99.90;;;;;;4945476;29;20656;-89
2021/11/27 09:16:50;;;;;;;26.00;10.17;;;4.60;99.90;;;;;;4927209;29;20288;-85
2021/11/27 11:39:36;;;;;;;9.60;4.93;;;13.30;99.90;;;;;;5615264;23;20610;-89
2021/11/27 11:42:02;;;;;;;11.40;4.10;;;14.10;99.90;;;;;;4961642;28;20260;-88
2021/11/27 11:44:29;;;;;;;11.47;3.80;;;14.90;99.90;;;;;;4958166;28;20179;-88
2021/11/27 11:46:55;;;;;;;10.27;3.53;;;15.30;99.90;;;;;;4975071;28;20278;-88
2021/11/27 11:49:21;;;;;;;8.60;3.80;;;14.90;99.90;;;;;;4975292;28;20305;-89
2021/11/27 11:52:02;;;;;;;8.80;3.60;;;14.90;98.90;;;;;;4974957;28;20186;-87
2021/11/27 11:54:33;;;;;;;9.07;3.33;;;13.70;99.90;;;;;;4968195;28;20188;-87
2021/11/27 11:57:08;;;;;;;11.53;4.10;;;13.10;99.90;;;;;;4974736;28;20214;-89
2021/11/27 13:03:07;;;;;;;8.53;4.00;;;8.90;99.90;;;;;;5435132;23;20230;-91
2021/11/27 13:05:39;;;;;;;11.30;4.63;;;8.90;99.90;;;;;;4957473;28;20314;-91
2021/11/27 13:08:23;;;;;;;9.13;4.07;;;9.00;99.90;;;;;;4957103;28;20636;-92
2021/11/27 13:10:53;;;;;;;8.17;4.00;;;9.20;99.90;;;;;;4961270;28;20180;-91
2021/11/27 13:46:17;;;;;;;5.90;3.73;;;7.90;99.90;;;;;;5153787;23;20239;-82
2021/11/27 13:48:44;;;;;;;7.93;4.03;;;7.80;99.90;;;;;;4938674;29;20186;-83
2021/11/27 13:51:09;;;;;;;12.57;4.73;;;7.70;99.90;;;;;;4921699;29;20211;-83
2021/11/27 13:53:36;;;;;;;10.83;4.20;;;7.70;99.90;;;;;;4921464;29;20184;-83
2021/11/27 13:56:03;;;;;;;11.70;5.10;;;7.50;99.90;;;;;;4921740;29;20182;-84
2021/11/27 13:58:30;;;;;;;9.73;4.23;;;7.50;99.90;;;;;;4920894;29;20192;-82
2021/11/27 14:01:00;;;;;;;10.83;4.93;;;7.60;99.90;;;;;;4921088;29;20219;-83
2021/11/27 14:03:31;;;;;;;10.10;4.67;;;7.50;99.90;;;;;;4921370;29;20188;-82
2021/11/27 14:48:43;;;;;;;7.40;4.00;;;7.10;99.90;;;;;;4958829;23;20235;-93
2021/11/27 14:51:09;;;;;;;8.40;4.07;;;7.00;99.90;;;;;;4938513;29;20188;-81
2021/11/27 14:53:38;;;;;;;7.37;4.47;;;7.00;99.90;;;;;;4956198;29;20191;-80
2021/11/27 14:56:05;;;;;;;5.73;3.50;;;7.00;99.90;;;;;;4956254;29;20214;-78
2021/11/27 14:58:31;;;;;;;6.57;3.83;;;7.00;99.90;;;;;;4955999;29;20188;-80
2021/11/27 15:01:14;;;;;;;6.53;3.97;;;7.00;99.90;;;;;;4956007;29;20277;-80
2021/11/27 15:03:41;;;;;;;9.43;3.90;;;6.90;99.90;;;;;;4956300;29;20220;-82
2021/11/27 15:06:13;;;;;;;6.73;4.20;;;6.90;99.90;;;;;;4956615;29;20715;-85
2021/11/27 15:08:39;;;;;;;9.33;4.07;;;6.80;99.90;;;;;;4954828;28;20274;-76
2021/11/27 15:11:06;;;;;;;10.43;4.57;;;6.80;99.90;;;;;;4954439;29;20187;-79
2021/11/27 15:13:32;;;;;;;9.43;4.80;;;6.90;99.90;;;;;;4955408;29;20554;-76
2021/11/27 15:15:58;;;;;;;7.60;4.77;;;6.90;99.90;;;;;;4953056;29;20194;-80
2021/11/27 15:18:23;;;;;;;7.97;4.80;;;6.90;99.90;;;;;;4946906;29;20188;-80
2021/11/27 15:20:49;;;;;;;7.47;5.17;;;6.90;99.90;;;;;;4952487;29;20226;-78
2021/11/27 15:23:15;;;;;;;8.57;4.40;;;6.90;99.90;;;;;;4955366;29;20791;-80
2021/11/27 15:25:41;;;;;;;10.23;4.60;;;6.80;99.90;;;;;;4953688;29;20270;-80
2021/11/27 15:28:07;;;;;;;8.43;4.63;;;6.80;99.90;;;;;;4936012;29;20187;-79
2021/11/27 15:30:34;;;;;;;9.40;6.13;;;6.80;99.90;;;;;;4936254;29;20227;-79
2021/11/27 15:33:00;;;;;;;8.13;4.97;;;6.90;99.90;;;;;;4944678;29;20183;-80
2021/11/27 15:35:26;;;;;;;7.07;5.43;;;6.80;99.90;;;;;;4942036;29;20553;-79
2021/11/27 15:37:51;;;;;;;7.53;4.80;;;6.80;99.90;;;;;;4951692;29;20193;-81
2021/11/27 15:40:17;;;;;;;9.87;5.40;;;6.80;99.90;;;;;;4954831;29;20305;-80
2021/11/27 15:42:44;;;;;;;8.43;6.60;;;6.80;99.90;;;;;;4955457;29;20187;-80
2021/11/27 15:45:12;;;;;;;9.87;5.87;;;6.80;99.90;;;;;;4954958;28;20191;-80
2021/11/27 15:47:38;;;;;;;11.33;8.30;;;6.90;99.90;;;;;;4955635;28;20191;-80
2021/11/27 15:50:04;;;;;;;10.00;7.67;;;7.00;99.90;;;;;;4955219;28;20215;-79
2021/11/27 15:52:31;;;;;;;9.70;5.77;;;6.80;99.90;;;;;;4947582;28;20279;-81
2021/11/27 15:54:58;;;;;;;9.77;5.67;;;6.70;99.90;;;;;;4949437;29;20666;-80
2021/11/27 15:57:25;;;;;;;9.67;5.10;;;6.60;99.90;;;;;;4955176;28;20588;-79
2021/11/27 15:59:51;;;;;;;10.37;6.40;;;6.70;99.90;;;;;;4955276;28;20223;-80
2021/11/27 16:02:18;;;;;;;12.00;7.53;;;6.70;99.90;;;;;;4954948;29;20310;-80
2021/11/27 16:04:44;;;;;;;53.17;37.33;;;6.70;99.90;;;;;;4955111;28;20183;-79
2021/11/27 16:07:12;;;;;;;11.20;6.73;;;6.80;99.90;;;;;;4954961;29;20202;-80
2021/11/27 16:09:39;;;;;;;18.17;14.00;;;6.70;99.90;;;;;;4954917;29;20270;-80
2021/11/27 16:12:05;;;;;;;17.30;11.70;;;6.80;99.90;;;;;;4954737;29;20194;-80
2021/11/27 16:14:31;;;;;;;15.60;7.10;;;6.80;99.90;;;;;;4954827;29;20191;-80
2021/11/27 16:16:57;;;;;;;9.67;5.57;;;6.90;99.90;;;;;;4954420;29;20248;-78
2021/11/27 16:19:23;;;;;;;8.83;5.90;;;6.90;99.90;;;;;;4930266;29;20295;-79
2021/11/27 16:21:51;;;;;;;11.83;7.10;;;6.80;99.90;;;;;;4951335;28;20254;-80
2021/11/27 16:24:17;;;;;;;11.97;7.47;;;6.70;99.90;;;;;;4937284;28;20522;-79
2021/11/27 16:26:43;;;;;;;9.27;6.37;;;6.60;99.90;;;;;;4935478;29;20668;-80
2021/11/27 16:29:08;;;;;;;8.50;6.00;;;6.60;99.90;;;;;;4935461;29;20180;-79
2021/11/27 16:31:34;;;;;;;9.87;5.13;;;6.30;99.90;;;;;;4935494;29;20283;-80
2021/11/27 16:34:00;;;;;;;8.17;5.43;;;6.00;99.90;;;;;;4935806;29;20183;-80
2021/11/27 16:36:26;;;;;;;7.70;5.07;;;5.80;99.90;;;;;;4936953;29;20656;-77
2021/11/27 16:38:51;;;;;;;9.33;5.40;;;5.60;99.90;;;;;;4954627;29;20187;-80
2021/11/27 16:41:19;;;;;;;8.43;5.40;;;5.60;99.90;;;;;;4945502;28;20607;-81
2021/11/27 16:43:46;;;;;;;7.30;5.40;;;5.50;99.90;;;;;;4929647;29;20183;-82
2021/11/27 16:46:16;;;;;;;12.03;6.33;;;5.40;99.90;;;;;;4935509;29;20267;-80
2021/11/27 16:48:43;;;;;;;10.93;6.47;;;5.50;99.90;;;;;;4933241;29;20617;-79
2021/11/27 16:51:09;;;;;;;9.80;6.33;;;5.40;99.90;;;;;;4918588;29;20196;-79
2021/11/27 16:53:35;;;;;;;10.53;6.70;;;5.30;99.90;;;;;;4941956;29;20337;-83
2021/11/27 16:56:02;;;;;;;10.77;7.83;;;5.20;99.90;;;;;;4935432;29;20266;-81
2021/11/27 16:58:28;;;;;;;14.87;8.90;;;5.20;99.90;;;;;;4935330;29;20263;-83
2021/11/27 17:00:53;;;;;;;13.07;8.83;;;5.20;99.90;;;;;;4935375;28;20704;-82
2021/11/27 17:03:19;;;;;;;16.77;10.90;;;5.20;99.90;;;;;;4942954;29;20203;-82
2021/11/27 17:05:47;;;;;;;15.50;9.83;;;5.20;99.90;;;;;;4937226;29;20188;-77
2021/11/27 17:08:14;;;;;;;21.27;12.97;;;5.20;99.90;;;;;;4942978;29;20250;-77
2021/11/27 17:10:41;;;;;;;13.73;9.10;;;5.20;99.90;;;;;;4946518;29;20242;-80
2021/11/27 17:13:07;;;;;;;13.07;9.33;;;5.20;99.90;;;;;;4943032;29;20184;-80
2021/11/27 17:15:33;;;;;;;12.73;8.97;;;5.20;99.90;;;;;;4940821;28;20192;-81
2021/11/27 17:17:59;;;;;;;16.77;10.40;;;5.20;99.90;;;;;;4943564;28;20187;-81
2021/11/27 17:20:24;;;;;;;13.03;9.23;;;5.20;99.90;;;;;;4934698;29;20226;-81
2021/11/27 17:22:50;;;;;;;20.63;12.87;;;5.30;99.90;;;;;;4933729;29;20267;-81
2021/11/27 17:25:16;;;;;;;24.47;16.07;;;5.20;99.90;;;;;;4935024;29;20187;-81